sensor_id;sensor_type;location;lat;lon;timestamp;pressure;altitude;pressure_sealevel;temperature;humidity
78584;BME280;67880;46.082;18.234;2023-09-30T00:00:55;100126.25;;;17.81;64.83
78584;BME280;67880;46.082;18.234;2023-09-30T00:01:29;100128.38;;;17.85;64.39
78584;BME280;67880;46.082;18.234;2023-09-30T00:02:38;100130.69;;;17.89;64.20
78584;BME280;67880;46.082;18.234;2023-09-30T00:03:46;100130.13;;;17.93;64.54
78584;BME280;67880;46.082;18.234;2023-09-30T00:04:20;100125.06;;;17.90;64.38
78584;BME280;67880;46.082;18.234;2023-09-30T00:04:54;100126.34;;;17.94;63.97
78584;BME280;67880;46.082;18.234;2023-09-30T00:05:29;100137.69;;;17.98;64.05
78584;BME280;67880;46.082;18.234;2023-09-30T00:06:03;100131.59;;;17.96;64.64
78584;BME280;67880;46.082;18.234;2023-09-30T00:06:39;100136.19;;;17.95;64.20
78584;BME280;67880;46.082;18.234;2023-09-30T00:07:15;100133.47;;;17.95;64.65
78584;BME280;67880;46.082;18.234;2023-09-30T00:07:50;100131.72;;;17.88;64.75
78584;BME280;67880;46.082;18.234;2023-09-30T00:08:24;100127.97;;;17.89;65.09
78584;BME280;67880;46.082;18.234;2023-09-30T00:08:58;100132.56;;;17.88;65.07
78584;BME280;67880;46.082;18.234;2023-09-30T00:09:32;100135.69;;;17.85;64.83
78584;BME280;67880;46.082;18.234;2023-09-30T00:10:07;100122.88;;;17.79;65.04
78584;BME280;67880;46.082;18.234;2023-09-30T00:10:43;100131.31;;;17.84;64.46
78584;BME280;67880;46.082;18.234;2023-09-30T00:11:18;100127.72;;;17.83;64.77
78584;BME280;67880;46.082;18.234;2023-09-30T00:11:52;100122.94;;;17.85;64.20
78584;BME280;67880;46.082;18.234;2023-09-30T00:13:37;100130.25;;;17.85;63.88
78584;BME280;67880;46.082;18.234;2023-09-30T00:14:13;100135.69;;;17.85;64.27
78584;BME280;67880;46.082;18.234;2023-09-30T00:14:48;100135.28;;;17.88;64.61
78584;BME280;67880;46.082;18.234;2023-09-30T00:15:23;100129.66;;;17.90;64.10
78584;BME280;67880;46.082;18.234;2023-09-30T00:15:58;100126.75;;;17.91;63.81
78584;BME280;67880;46.082;18.234;2023-09-30T00:16:33;100125.94;;;17.91;64.42
78584;BME280;67880;46.082;18.234;2023-09-30T00:17:09;100126.75;;;17.91;64.36
78584;BME280;67880;46.082;18.234;2023-09-30T00:17:43;100130.75;;;17.95;64.27
78584;BME280;67880;46.082;18.234;2023-09-30T00:18:17;100126.31;;;17.88;64.52
78584;BME280;67880;46.082;18.234;2023-09-30T00:18:51;100123.78;;;17.86;64.52
78584;BME280;67880;46.082;18.234;2023-09-30T00:19:29;100132.13;;;17.84;64.86
78584;BME280;67880;46.082;18.234;2023-09-30T00:20:06;100128.13;;;17.80;64.67
78584;BME280;67880;46.082;18.234;2023-09-30T00:20:42;100121.66;;;17.81;64.59
78584;BME280;67880;46.082;18.234;2023-09-30T00:21:17;100134.44;;;17.88;65.14
78584;BME280;67880;46.082;18.234;2023-09-30T00:21:50;100128.38;;;17.85;64.86
78584;BME280;67880;46.082;18.234;2023-09-30T00:22:28;100132.50;;;17.81;65.04
78584;BME280;67880;46.082;18.234;2023-09-30T00:23:06;100128.69;;;17.76;65.69
78584;BME280;67880;46.082;18.234;2023-09-30T00:23:39;100122.22;;;17.77;65.30
78584;BME280;67880;46.082;18.234;2023-09-30T00:24:46;100119.41;;;17.70;65.45
78584;BME280;67880;46.082;18.234;2023-09-30T00:25:25;100123.16;;;17.69;65.90
78584;BME280;67880;46.082;18.234;2023-09-30T00:26:01;100115.22;;;17.68;65.21
78584;BME280;67880;46.082;18.234;2023-09-30T00:26:35;100114.81;;;17.71;64.97
78584;BME280;67880;46.082;18.234;2023-09-30T00:27:09;100118.56;;;17.70;65.67
78584;BME280;67880;46.082;18.234;2023-09-30T00:27:43;100116.69;;;17.70;65.07
78584;BME280;67880;46.082;18.234;2023-09-30T00:28:17;100118.56;;;17.70;65.44
78584;BME280;67880;46.082;18.234;2023-09-30T00:28:54;100121.16;;;17.71;65.39
78584;BME280;67880;46.082;18.234;2023-09-30T00:30:03;100118.03;;;17.74;64.86
78584;BME280;67880;46.082;18.234;2023-09-30T00:30:41;100114.69;;;17.72;64.99
78584;BME280;67880;46.082;18.234;2023-09-30T00:31:15;100115.53;;;17.73;65.34
78584;BME280;67880;46.082;18.234;2023-09-30T00:31:50;100111.75;;;17.74;65.09
78584;BME280;67880;46.082;18.234;2023-09-30T00:32:23;100115.72;;;17.71;65.31
78584;BME280;67880;46.082;18.234;2023-09-30T00:33:34;100110.28;;;17.71;64.76
78584;BME280;67880;46.082;18.234;2023-09-30T00:34:43;100114.06;;;17.77;65.00
78584;BME280;67880;46.082;18.234;2023-09-30T00:35:53;100115.13;;;17.76;64.50
78584;BME280;67880;46.082;18.234;2023-09-30T00:36:28;100117.00;;;17.75;65.33
78584;BME280;67880;46.082;18.234;2023-09-30T00:37:02;100122.81;;;17.72;65.02
78584;BME280;67880;46.082;18.234;2023-09-30T00:37:35;100115.72;;;17.71;65.39
78584;BME280;67880;46.082;18.234;2023-09-30T00:38:09;100117.53;;;17.71;65.31
78584;BME280;67880;46.082;18.234;2023-09-30T00:38:45;100115.03;;;17.69;64.99
78584;BME280;67880;46.082;18.234;2023-09-30T00:39:20;100113.34;;;17.68;65.09
78584;BME280;67880;46.082;18.234;2023-09-30T00:39:53;100118.97;;;17.67;65.38
78584;BME280;67880;46.082;18.234;2023-09-30T00:40:27;100112.72;;;17.66;65.48
78584;BME280;67880;46.082;18.234;2023-09-30T00:41:04;100115.41;;;17.66;65.04
78584;BME280;67880;46.082;18.234;2023-09-30T00:41:39;100114.75;;;17.64;65.71
78584;BME280;67880;46.082;18.234;2023-09-30T00:42:15;100107.84;;;17.62;65.08
78584;BME280;67880;46.082;18.234;2023-09-30T00:42:49;100116.47;;;17.65;65.23
78584;BME280;67880;46.082;18.234;2023-09-30T00:43:24;100114.38;;;17.67;65.22
78584;BME280;67880;46.082;18.234;2023-09-30T00:45:09;100117.25;;;17.59;65.66
78584;BME280;67880;46.082;18.234;2023-09-30T00:45:48;100117.25;;;17.59;65.08
78584;BME280;67880;46.082;18.234;2023-09-30T00:46:29;100116.97;;;17.54;65.61
78584;BME280;67880;46.082;18.234;2023-09-30T00:47:06;100119.13;;;17.58;65.05
78584;BME280;67880;46.082;18.234;2023-09-30T00:47:41;100111.03;;;17.65;65.53
78584;BME280;67880;46.082;18.234;2023-09-30T00:48:16;100106.59;;;17.64;65.21
78584;BME280;67880;46.082;18.234;2023-09-30T00:48:51;100121.63;;;17.60;65.13
78584;BME280;67880;46.082;18.234;2023-09-30T00:49:59;100113.41;;;17.53;65.43
78584;BME280;67880;46.082;18.234;2023-09-30T00:50:35;100118.44;;;17.56;65.56
78584;BME280;67880;46.082;18.234;2023-09-30T00:51:08;100114.69;;;17.57;65.81
78584;BME280;67880;46.082;18.234;2023-09-30T00:51:42;100122.19;;;17.55;65.81
78584;BME280;67880;46.082;18.234;2023-09-30T00:52:20;100117.59;;;17.56;65.85
78584;BME280;67880;46.082;18.234;2023-09-30T00:52:54;100118.44;;;17.56;65.75
78584;BME280;67880;46.082;18.234;2023-09-30T00:53:31;100114.88;;;17.56;65.77
78584;BME280;67880;46.082;18.234;2023-09-30T00:54:04;100113.69;;;17.58;65.62
78584;BME280;67880;46.082;18.234;2023-09-30T00:55:19;100120.59;;;17.61;65.42
78584;BME280;67880;46.082;18.234;2023-09-30T00:56:29;100112.19;;;17.56;65.57
78584;BME280;67880;46.082;18.234;2023-09-30T00:57:04;100119.69;;;17.54;65.85
78584;BME280;67880;46.082;18.234;2023-09-30T00:57:39;100110.28;;;17.56;65.55
78584;BME280;67880;46.082;18.234;2023-09-30T00:58:13;100110.28;;;17.56;65.67
78584;BME280;67880;46.082;18.234;2023-09-30T00:58:47;100114.25;;;17.54;65.44
78584;BME280;67880;46.082;18.234;2023-09-30T00:59:22;100116.97;;;17.54;65.90
78584;BME280;67880;46.082;18.234;2023-09-30T01:00:00;100105.84;;;17.49;66.21
78584;BME280;67880;46.082;18.234;2023-09-30T01:00:35;100107.50;;;17.50;66.07
78584;BME280;67880;46.082;18.234;2023-09-30T01:01:10;100104.59;;;17.51;65.97
78584;BME280;67880;46.082;18.234;2023-09-30T01:01:45;100107.72;;;17.48;65.98
78584;BME280;67880;46.082;18.234;2023-09-30T01:02:21;100107.09;;;17.46;65.97
78584;BME280;67880;46.082;18.234;2023-09-30T01:02:56;100113.53;;;17.45;66.53
78584;BME280;67880;46.082;18.234;2023-09-30T01:03:34;100110.84;;;17.45;66.36
78584;BME280;67880;46.082;18.234;2023-09-30T01:04:12;100108.28;;;17.44;66.60
78584;BME280;67880;46.082;18.234;2023-09-30T01:04:51;100112.31;;;17.48;66.14
78584;BME280;67880;46.082;18.234;2023-09-30T01:05:25;100110.03;;;17.51;66.01
78584;BME280;67880;46.082;18.234;2023-09-30T01:06:00;100101.66;;;17.46;66.56
78584;BME280;67880;46.082;18.234;2023-09-30T01:06:34;100107.09;;;17.46;66.44
78584;BME280;67880;46.082;18.234;2023-09-30T01:07:07;100107.91;;;17.47;67.19
78584;BME280;67880;46.082;18.234;2023-09-30T01:07:43;100105.78;;;17.42;66.66
78584;BME280;67880;46.082;18.234;2023-09-30T01:08:18;100103.69;;;17.44;66.68
78584;BME280;67880;46.082;18.234;2023-09-30T01:08:54;100106.25;;;17.46;66.37
78584;BME280;67880;46.082;18.234;2023-09-30T01:09:28;100107.72;;;17.48;66.57
78584;BME280;67880;46.082;18.234;2023-09-30T01:10:02;100108.19;;;17.52;66.20
78584;BME280;67880;46.082;18.234;2023-09-30T01:10:39;100108.56;;;17.49;65.85
78584;BME280;67880;46.082;18.234;2023-09-30T01:11:14;100113.41;;;17.53;65.79
78584;BME280;67880;46.082;18.234;2023-09-30T01:11:50;100104.03;;;17.56;65.66
78584;BME280;67880;46.082;18.234;2023-09-30T01:12:24;100113.00;;;17.56;65.55
78584;BME280;67880;46.082;18.234;2023-09-30T01:13:00;100110.50;;;17.55;65.58
78584;BME280;67880;46.082;18.234;2023-09-30T01:13:34;100106.09;;;17.54;66.20
78584;BME280;67880;46.082;18.234;2023-09-30T01:14:31;100110.50;;;17.55;66.25
78584;BME280;67880;46.082;18.234;2023-09-30T01:15:05;100110.09;;;17.58;65.76
78584;BME280;67880;46.082;18.234;2023-09-30T01:15:42;100109.25;;;17.57;66.27
78584;BME280;67880;46.082;18.234;2023-09-30T01:16:17;100111.97;;;17.57;66.53
78584;BME280;67880;46.082;18.234;2023-09-30T01:16:53;100109.25;;;17.57;66.39
78584;BME280;67880;46.082;18.234;2023-09-30T01:17:26;100104.03;;;17.56;66.51
78584;BME280;67880;46.082;18.234;2023-09-30T01:18:04;100110.69;;;17.53;66.48
78584;BME280;67880;46.082;18.234;2023-09-30T01:18:40;100115.88;;;17.48;66.40
78584;BME280;67880;46.082;18.234;2023-09-30T01:19:18;100115.41;;;17.45;66.31
78584;BME280;67880;46.082;18.234;2023-09-30T01:19:53;100114.13;;;17.41;67.13
78584;BME280;67880;46.082;18.234;2023-09-30T01:21:43;100114.56;;;17.44;66.60
78584;BME280;67880;46.082;18.234;2023-09-30T01:22:57;100108.88;;;17.39;67.04
78584;BME280;67880;46.082;18.234;2023-09-30T01:24:06;100113.38;;;17.32;67.55
78584;BME280;67880;46.082;18.234;2023-09-30T01:25:15;100119.66;;;17.32;67.57
78584;BME280;67880;46.082;18.234;2023-09-30T01:25:50;100117.13;;;17.31;67.56
78584;BME280;67880;46.082;18.234;2023-09-30T01:26:25;100113.97;;;17.27;67.78
78584;BME280;67880;46.082;18.234;2023-09-30T01:27:00;100113.50;;;17.24;67.74
78584;BME280;67880;46.082;18.234;2023-09-30T01:27:34;100111.34;;;17.19;68.19
78584;BME280;67880;46.082;18.234;2023-09-30T01:28:08;100119.31;;;17.21;67.87
78584;BME280;67880;46.082;18.234;2023-09-30T01:28:43;100115.56;;;17.22;67.55
78584;BME280;67880;46.082;18.234;2023-09-30T01:29:19;100118.09;;;17.23;68.02
78584;BME280;67880;46.082;18.234;2023-09-30T01:29:54;100120.16;;;17.21;67.62
78584;BME280;67880;46.082;18.234;2023-09-30T01:30:27;100113.06;;;17.20;67.64
78584;BME280;67880;46.082;18.234;2023-09-30T01:31:34;100108.19;;;17.16;67.69
78584;BME280;67880;46.082;18.234;2023-09-30T01:32:10;100109.22;;;17.15;68.14
78584;BME280;67880;46.082;18.234;2023-09-30T01:32:46;100099.78;;;17.11;68.16
78584;BME280;67880;46.082;18.234;2023-09-30T01:33:21;100099.34;;;17.07;68.33
78584;BME280;67880;46.082;18.234;2023-09-30T01:33:59;100110.34;;;17.05;67.99
78584;BME280;67880;46.082;18.234;2023-09-30T01:34:32;100109.53;;;17.05;68.45
78584;BME280;67880;46.082;18.234;2023-09-30T01:35:07;100100.75;;;17.03;68.35
78584;BME280;67880;46.082;18.234;2023-09-30T01:35:40;100103.66;;;17.01;68.49
78584;BME280;67880;46.082;18.234;2023-09-30T01:36:50;100102.97;;;16.99;68.50
78584;BME280;67880;46.082;18.234;2023-09-30T01:37:27;100105.06;;;16.97;68.56
78584;BME280;67880;46.082;18.234;2023-09-30T01:38:03;100104.59;;;16.94;68.70
78584;BME280;67880;46.082;18.234;2023-09-30T01:38:42;100101.03;;;16.93;68.61
78584;BME280;67880;46.082;18.234;2023-09-30T01:39:17;100102.91;;;16.93;68.34
78584;BME280;67880;46.082;18.234;2023-09-30T01:39:52;100102.06;;;16.92;68.28
78584;BME280;67880;46.082;18.234;2023-09-30T01:40:27;100102.53;;;16.96;68.41
78584;BME280;67880;46.082;18.234;2023-09-30T01:42:11;100107.41;;;17.00;68.12
78584;BME280;67880;46.082;18.234;2023-09-30T01:43:22;100112.81;;;17.00;68.21
78584;BME280;67880;46.082;18.234;2023-09-30T01:43:55;100102.97;;;16.99;68.10
78584;BME280;67880;46.082;18.234;2023-09-30T01:44:30;100108.41;;;16.99;68.43
78584;BME280;67880;46.082;18.234;2023-09-30T01:45:04;100108.59;;;16.98;68.12
78584;BME280;67880;46.082;18.234;2023-09-30T01:45:40;100106.28;;;16.95;68.56
78584;BME280;67880;46.082;18.234;2023-09-30T01:46:13;100107.47;;;16.92;68.47
78584;BME280;67880;46.082;18.234;2023-09-30T01:46:49;100108.06;;;16.88;68.41
78584;BME280;67880;46.082;18.234;2023-09-30T01:47:22;100102.81;;;16.86;68.75
78584;BME280;67880;46.082;18.234;2023-09-30T01:47:58;100103.22;;;16.83;68.83
78584;BME280;67880;46.082;18.234;2023-09-30T01:48:33;100106.13;;;16.82;68.99
78584;BME280;67880;46.082;18.234;2023-09-30T01:49:09;100106.47;;;16.78;68.60
78584;BME280;67880;46.082;18.234;2023-09-30T01:49:43;100113.22;;;16.83;69.11
78584;BME280;67880;46.082;18.234;2023-09-30T01:50:18;100110.88;;;16.79;68.89
78584;BME280;67880;46.082;18.234;2023-09-30T01:50:54;100111.72;;;16.80;69.07
78584;BME280;67880;46.082;18.234;2023-09-30T01:52:00;100115.44;;;16.79;69.10
78584;BME280;67880;46.082;18.234;2023-09-30T01:52:35;100108.34;;;16.78;68.69
78584;BME280;67880;46.082;18.234;2023-09-30T01:53:11;100109.59;;;16.75;68.81
78584;BME280;67880;46.082;18.234;2023-09-30T01:53:46;100107.91;;;16.74;68.65
78584;BME280;67880;46.082;18.234;2023-09-30T01:54:21;100114.34;;;16.73;68.84
78584;BME280;67880;46.082;18.234;2023-09-30T01:54:55;100118.06;;;16.72;69.02
78584;BME280;67880;46.082;18.234;2023-09-30T01:55:30;100111.47;;;16.75;68.42
78584;BME280;67880;46.082;18.234;2023-09-30T01:56:05;100109.94;;;16.72;68.66
78584;BME280;67880;46.082;18.234;2023-09-30T01:57:12;100108.06;;;16.73;68.32
78584;BME280;67880;46.082;18.234;2023-09-30T01:57:48;100106.59;;;16.70;68.52
78584;BME280;67880;46.082;18.234;2023-09-30T01:58:23;100113.50;;;16.73;68.47
78584;BME280;67880;46.082;18.234;2023-09-30T01:58:59;100108.47;;;16.70;68.61
78584;BME280;67880;46.082;18.234;2023-09-30T01:59:34;100109.38;;;16.62;69.05
78584;BME280;67880;46.082;18.234;2023-09-30T02:00:09;100110.22;;;16.63;68.92
78584;BME280;67880;46.082;18.234;2023-09-30T02:00:45;100116.47;;;16.63;69.03
78584;BME280;67880;46.082;18.234;2023-09-30T02:01:20;100107.09;;;16.66;68.97
78584;BME280;67880;46.082;18.234;2023-09-30T02:01:55;100101.69;;;16.66;68.82
78584;BME280;67880;46.082;18.234;2023-09-30T02:03:39;100107.94;;;16.66;68.42
78584;BME280;67880;46.082;18.234;2023-09-30T02:04:13;100116.06;;;16.66;68.80
78584;BME280;67880;46.082;18.234;2023-09-30T02:04:48;100108.13;;;16.65;68.61
78584;BME280;67880;46.082;18.234;2023-09-30T02:05:24;100116.06;;;16.66;68.73
78584;BME280;67880;46.082;18.234;2023-09-30T02:05:59;100113.56;;;16.65;69.06
78584;BME280;67880;46.082;18.234;2023-09-30T02:06:34;100107.31;;;16.64;68.86
78584;BME280;67880;46.082;18.234;2023-09-30T02:07:08;100122.09;;;16.62;69.02
78584;BME280;67880;46.082;18.234;2023-09-30T02:08:16;100105.53;;;16.57;68.87
78584;BME280;67880;46.082;18.234;2023-09-30T02:08:51;100114.50;;;16.57;69.08
78584;BME280;67880;46.082;18.234;2023-09-30T02:09:26;100111.78;;;16.57;69.12
78584;BME280;67880;46.082;18.234;2023-09-30T02:10:01;100109.44;;;16.54;69.02
78584;BME280;67880;46.082;18.234;2023-09-30T02:10:35;100111.16;;;16.55;69.32
78584;BME280;67880;46.082;18.234;2023-09-30T02:11:11;100105.44;;;16.50;69.49
78584;BME280;67880;46.082;18.234;2023-09-30T02:12:21;100111.59;;;16.44;69.41
78584;BME280;67880;46.082;18.234;2023-09-30T02:12:57;100105.16;;;16.45;69.24
78584;BME280;67880;46.082;18.234;2023-09-30T02:13:34;100108.91;;;16.44;69.81
78584;BME280;67880;46.082;18.234;2023-09-30T02:14:10;100113.09;;;16.46;69.55
78584;BME280;67880;46.082;18.234;2023-09-30T02:14:47;100108.69;;;16.45;69.56
78584;BME280;67880;46.082;18.234;2023-09-30T02:15:21;100095.53;;;16.42;69.51
78584;BME280;67880;46.082;18.234;2023-09-30T02:15:55;100111.31;;;16.39;69.79
78584;BME280;67880;46.082;18.234;2023-09-30T02:17:05;100112.25;;;16.46;69.56
78584;BME280;67880;46.082;18.234;2023-09-30T02:17:42;100110.19;;;16.48;69.29
78584;BME280;67880;46.082;18.234;2023-09-30T02:18:19;100117.31;;;16.49;69.41
78584;BME280;67880;46.082;18.234;2023-09-30T02:18:52;100108.91;;;16.44;69.47
78584;BME280;67880;46.082;18.234;2023-09-30T02:19:28;100113.47;;;16.43;69.62
78584;BME280;67880;46.082;18.234;2023-09-30T02:20:05;100112.44;;;16.44;69.49
78584;BME280;67880;46.082;18.234;2023-09-30T02:20:47;100113.28;;;16.45;69.59
78584;BME280;67880;46.082;18.234;2023-09-30T02:21:22;100109.94;;;16.43;69.67
78584;BME280;67880;46.082;18.234;2023-09-30T02:21:56;100104.03;;;16.39;69.99
78584;BME280;67880;46.082;18.234;2023-09-30T02:22:30;100103.84;;;16.41;69.67
78584;BME280;67880;46.082;18.234;2023-09-30T02:23:09;100105.69;;;16.40;69.90
78584;BME280;67880;46.082;18.234;2023-09-30T02:23:47;100106.09;;;16.37;69.70
78584;BME280;67880;46.082;18.234;2023-09-30T02:24:21;100110.47;;;16.38;70.17
78584;BME280;67880;46.082;18.234;2023-09-30T02:24:57;100114.38;;;16.36;70.04
78584;BME280;67880;46.082;18.234;2023-09-30T02:25:32;100108.97;;;16.36;69.94
78584;BME280;67880;46.082;18.234;2023-09-30T02:26:08;100111.66;;;16.36;69.93
78584;BME280;67880;46.082;18.234;2023-09-30T02:26:46;100109.63;;;16.38;69.72
78584;BME280;67880;46.082;18.234;2023-09-30T02:27:21;100121.13;;;16.40;69.98
78584;BME280;67880;46.082;18.234;2023-09-30T02:27:56;100113.38;;;16.37;70.25
78584;BME280;67880;46.082;18.234;2023-09-30T02:28:30;100117.28;;;16.34;70.02
78584;BME280;67880;46.082;18.234;2023-09-30T02:29:09;100113.09;;;16.32;69.83
78584;BME280;67880;46.082;18.234;2023-09-30T02:29:43;100112.59;;;16.28;70.13
78584;BME280;67880;46.082;18.234;2023-09-30T02:30:17;100119.53;;;16.31;69.78
78584;BME280;67880;46.082;18.234;2023-09-30T02:30:50;100111.75;;;16.28;70.28
78584;BME280;67880;46.082;18.234;2023-09-30T02:31:24;100108.03;;;16.29;70.09
78584;BME280;67880;46.082;18.234;2023-09-30T02:31:58;100115.16;;;16.30;70.13
78584;BME280;67880;46.082;18.234;2023-09-30T02:32:32;100112.25;;;16.31;70.26
78584;BME280;67880;46.082;18.234;2023-09-30T02:33:08;100107.28;;;16.35;69.96
78584;BME280;67880;46.082;18.234;2023-09-30T02:33:42;100116.81;;;16.31;70.07
78584;BME280;67880;46.082;18.234;2023-09-30T02:34:18;100109.78;;;16.21;70.34
78584;BME280;67880;46.082;18.234;2023-09-30T02:34:53;100116.88;;;16.22;70.50
78584;BME280;67880;46.082;18.234;2023-09-30T02:35:28;100114.19;;;16.22;70.67
78584;BME280;67880;46.082;18.234;2023-09-30T02:36:06;100116.06;;;16.22;70.85
78584;BME280;67880;46.082;18.234;2023-09-30T02:36:40;100108.13;;;16.20;70.64
78584;BME280;67880;46.082;18.234;2023-09-30T02:37:17;100110.53;;;16.15;71.36
78584;BME280;67880;46.082;18.234;2023-09-30T02:37:53;100114.75;;;16.18;71.09
78584;BME280;67880;46.082;18.234;2023-09-30T02:38:27;100112.59;;;16.13;71.18
78584;BME280;67880;46.082;18.234;2023-09-30T02:39:02;100107.38;;;16.12;71.10
78584;BME280;67880;46.082;18.234;2023-09-30T02:39:36;100114.66;;;16.11;71.42
78584;BME280;67880;46.082;18.234;2023-09-30T02:40:10;100114.47;;;16.13;71.43
78584;BME280;67880;46.082;18.234;2023-09-30T02:40:48;100118.19;;;16.12;71.50
78584;BME280;67880;46.082;18.234;2023-09-30T02:41:57;100116.97;;;16.14;70.76
78584;BME280;67880;46.082;18.234;2023-09-30T02:42:32;100117.72;;;16.08;71.10
78584;BME280;67880;46.082;18.234;2023-09-30T02:43:06;100118.41;;;16.10;70.91
78584;BME280;67880;46.082;18.234;2023-09-30T02:43:39;100123.81;;;16.10;70.98
78584;BME280;67880;46.082;18.234;2023-09-30T02:44:15;100125.66;;;16.10;71.21
78584;BME280;67880;46.082;18.234;2023-09-30T02:44:48;100126.25;;;16.20;71.07
78584;BME280;67880;46.082;18.234;2023-09-30T02:45:21;100116.78;;;16.16;70.49
78584;BME280;67880;46.082;18.234;2023-09-30T02:45:56;100111.22;;;16.17;70.50
78584;BME280;67880;46.082;18.234;2023-09-30T02:46:30;100118.75;;;16.22;70.52
78584;BME280;67880;46.082;18.234;2023-09-30T02:47:38;100119.44;;;16.24;70.50
78584;BME280;67880;46.082;18.234;2023-09-30T02:48:47;100122.69;;;16.19;70.52
78584;BME280;67880;46.082;18.234;2023-09-30T02:49:21;100121.00;;;16.18;70.55
78584;BME280;67880;46.082;18.234;2023-09-30T02:49:57;100115.78;;;16.17;70.79
78584;BME280;67880;46.082;18.234;2023-09-30T02:50:32;100119.78;;;16.21;70.76
78584;BME280;67880;46.082;18.234;2023-09-30T02:51:39;100117.81;;;16.15;70.87
78584;BME280;67880;46.082;18.234;2023-09-30T02:52:13;100116.78;;;16.16;70.99
78584;BME280;67880;46.082;18.234;2023-09-30T02:52:47;100112.59;;;16.13;71.37
78584;BME280;67880;46.082;18.234;2023-09-30T02:53:24;100114.28;;;16.14;70.89
78584;BME280;67880;46.082;18.234;2023-09-30T02:53:59;100116.53;;;16.11;70.87
78584;BME280;67880;46.082;18.234;2023-09-30T02:54:34;100121.75;;;16.12;71.18
78584;BME280;67880;46.082;18.234;2023-09-30T02:55:10;100118.56;;;16.09;71.45
78584;BME280;67880;46.082;18.234;2023-09-30T02:55:46;100119.03;;;16.12;71.16
78584;BME280;67880;46.082;18.234;2023-09-30T02:56:21;100114.91;;;16.16;71.03
78584;BME280;67880;46.082;18.234;2023-09-30T02:56:57;100114.91;;;16.16;71.35
78584;BME280;67880;46.082;18.234;2023-09-30T02:57:31;100109.50;;;16.16;71.17
78584;BME280;67880;46.082;18.234;2023-09-30T02:58:04;100125.59;;;16.18;70.98
78584;BME280;67880;46.082;18.234;2023-09-30T02:58:39;100123.34;;;16.21;70.41
78584;BME280;67880;46.082;18.234;2023-09-30T02:59:15;100116.31;;;16.12;71.13
78584;BME280;67880;46.082;18.234;2023-09-30T02:59:51;100119.69;;;16.14;70.90
78584;BME280;67880;46.082;18.234;2023-09-30T03:00:26;100115.31;;;16.13;70.88
78584;BME280;67880;46.082;18.234;2023-09-30T03:01:00;100118.84;;;16.14;71.20
78584;BME280;67880;46.082;18.234;2023-09-30T03:02:07;100127.16;;;16.12;71.07
78584;BME280;67880;46.082;18.234;2023-09-30T03:02:41;100123.50;;;16.05;72.25
78584;BME280;67880;46.082;18.234;2023-09-30T03:03:15;100119.78;;;16.06;72.36
78584;BME280;67880;46.082;18.234;2023-09-30T03:03:50;100117.06;;;16.06;72.62
78584;BME280;67880;46.082;18.234;2023-09-30T03:04:25;100121.84;;;16.04;72.72
78584;BME280;67880;46.082;18.234;2023-09-30T03:05:01;100123.50;;;16.05;72.71
78584;BME280;67880;46.082;18.234;2023-09-30T03:05:37;100115.56;;;16.04;73.22
78584;BME280;67880;46.082;18.234;2023-09-30T03:06:12;100114.06;;;16.01;73.03
78584;BME280;67880;46.082;18.234;2023-09-30T03:06:47;100116.13;;;15.99;73.23
78584;BME280;67880;46.082;18.234;2023-09-30T03:07:21;100118.44;;;16.02;72.48
78584;BME280;67880;46.082;18.234;2023-09-30T03:07:57;100113.03;;;16.02;73.32
78584;BME280;67880;46.082;18.234;2023-09-30T03:08:32;100114.06;;;16.01;73.51
78584;BME280;67880;46.082;18.234;2023-09-30T03:09:07;100109.03;;;15.98;74.04
78584;BME280;67880;46.082;18.234;2023-09-30T03:09:44;100115.28;;;15.98;74.10
78584;BME280;67880;46.082;18.234;2023-09-30T03:10:21;100109.75;;;15.92;74.49
78584;BME280;67880;46.082;18.234;2023-09-30T03:10:58;100112.81;;;15.89;74.65
78584;BME280;67880;46.082;18.234;2023-09-30T03:11:31;100119.91;;;15.90;75.08
78584;BME280;67880;46.082;18.234;2023-09-30T03:12:05;100120.28;;;15.87;74.97
78584;BME280;67880;46.082;18.234;2023-09-30T03:12:43;100108.13;;;15.83;75.37
78584;BME280;67880;46.082;18.234;2023-09-30T03:13:19;100116.44;;;15.81;74.79
78584;BME280;67880;46.082;18.234;2023-09-30T03:13:57;100110.53;;;15.78;74.79
78584;BME280;67880;46.082;18.234;2023-09-30T03:14:33;100112.59;;;15.76;75.25
78584;BME280;67880;46.082;18.234;2023-09-30T03:15:09;100119.88;;;15.75;75.08
78584;BME280;67880;46.082;18.234;2023-09-30T03:15:46;100118.00;;;15.76;75.42
78584;BME280;67880;46.082;18.234;2023-09-30T03:16:21;100118.00;;;15.76;75.49
78584;BME280;67880;46.082;18.234;2023-09-30T03:16:58;100111.28;;;15.72;75.57
78584;BME280;67880;46.082;18.234;2023-09-30T03:17:34;100116.50;;;15.73;75.55
78584;BME280;67880;46.082;18.234;2023-09-30T03:18:15;100126.13;;;15.76;74.98
78584;BME280;67880;46.082;18.234;2023-09-30T03:18:55;100112.59;;;15.76;74.30
78584;BME280;67880;46.082;18.234;2023-09-30T03:19:29;100109.41;;;15.72;73.45
78584;BME280;67880;46.082;18.234;2023-09-30T03:20:04;100120.06;;;15.74;73.67
78584;BME280;67880;46.082;18.234;2023-09-30T03:20:45;100112.88;;;15.81;73.06
78584;BME280;67880;46.082;18.234;2023-09-30T03:21:20;100116.25;;;15.83;73.24
78584;BME280;67880;46.082;18.234;2023-09-30T03:21:55;100114.56;;;15.82;72.88
78584;BME280;67880;46.082;18.234;2023-09-30T03:22:31;100117.66;;;15.79;73.13
78584;BME280;67880;46.082;18.234;2023-09-30T03:23:06;100124.25;;;15.76;73.11
78584;BME280;67880;46.082;18.234;2023-09-30T03:23:43;100120.06;;;15.74;73.24